sensor_id;sensor_type;location;lat;lon;timestamp;temperature;humidity
6740;DHT22;3407;49.882;10.920;2022-09-30T00:00:28;5.80;1.00
6740;DHT22;3407;49.882;10.920;2022-09-30T00:05:24;5.60;1.00
6740;DHT22;3407;49.882;10.920;2022-09-30T00:10:19;5.60;1.00
6740;DHT22;3407;49.882;10.920;2022-09-30T00:15:15;5.60;1.90
6740;DHT22;3407;49.882;10.920;2022-09-30T00:20:11;5.50;3.60
6740;DHT22;3407;49.882;10.920;2022-09-30T00:25:06;5.40;15.20
6740;DHT22;3407;49.882;10.920;2022-09-30T00:30:03;5.40;19.60
6740;DHT22;3407;49.882;10.920;2022-09-30T00:34:58;5.50;23.00
6740;DHT22;3407;49.882;10.920;2022-09-30T00:39:54;5.50;22.90
6740;DHT22;3407;49.882;10.920;2022-09-30T00:49:49;5.60;24.40
6740;DHT22;3407;49.882;10.920;2022-09-30T00:54:46;5.60;22.90
6740;DHT22;3407;49.882;10.920;2022-09-30T00:59:46;5.70;18.40
6740;DHT22;3407;49.882;10.920;2022-09-30T01:04:43;5.70;13.80
6740;DHT22;3407;49.882;10.920;2022-09-30T01:09:40;5.80;8.30
6740;DHT22;3407;49.882;10.920;2022-09-30T01:14:37;5.80;1.00
6740;DHT22;3407;49.882;10.920;2022-09-30T01:46:30;5.80;12.00
6740;DHT22;3407;49.882;10.920;2022-09-30T01:56:40;5.60;2.80
6740;DHT22;3407;49.882;10.920;2022-09-30T02:01:44;5.50;2.60
6740;DHT22;3407;49.882;10.920;2022-09-30T02:06:45;5.50;3.20
6740;DHT22;3407;49.882;10.920;2022-09-30T02:11:42;5.60;5.30
6740;DHT22;3407;49.882;10.920;2022-09-30T02:16:45;5.50;1.00
6740;DHT22;3407;49.882;10.920;2022-09-30T02:21:47;5.40;1.00
6740;DHT22;3407;49.882;10.920;2022-09-30T02:26:46;5.30;1.00
6740;DHT22;3407;49.882;10.920;2022-09-30T02:31:47;5.20;1.00
6740;DHT22;3407;49.882;10.920;2022-09-30T02:36:49;5.20;7.00
6740;DHT22;3407;49.882;10.920;2022-09-30T02:41:54;5.10;5.50
6740;DHT22;3407;49.882;10.920;2022-09-30T02:47:14;5.10;12.80
6740;DHT22;3407;49.882;10.920;2022-09-30T02:52:25;5.00;21.20
6740;DHT22;3407;49.882;10.920;2022-09-30T02:57:30;5.00;28.00
6740;DHT22;3407;49.882;10.920;2022-09-30T03:02:28;5.00;34.20
6740;DHT22;3407;49.882;10.920;2022-09-30T03:07:23;5.00;37.50
6740;DHT22;3407;49.882;10.920;2022-09-30T03:13:04;5.00;37.50
6740;DHT22;3407;49.882;10.920;2022-09-30T03:28:43;5.00;40.50
6740;DHT22;3407;49.882;10.920;2022-09-30T03:33:50;5.10;40.90
6740;DHT22;3407;49.882;10.920;2022-09-30T03:38:56;5.20;37.40
6740;DHT22;3407;49.882;10.920;2022-09-30T03:44:14;5.20;37.30
6740;DHT22;3407;49.882;10.920;2022-09-30T03:49:20;5.20;35.50
6740;DHT22;3407;49.882;10.920;2022-09-30T03:54:17;5.20;35.10
6740;DHT22;3407;49.882;10.920;2022-09-30T03:59:22;5.10;29.80
6740;DHT22;3407;49.882;10.920;2022-09-30T04:04:18;5.00;33.60
6740;DHT22;3407;49.882;10.920;2022-09-30T04:09:14;5.00;36.80
6740;DHT22;3407;49.882;10.920;2022-09-30T04:14:10;5.00;39.20
6740;DHT22;3407;49.882;10.920;2022-09-30T04:19:05;5.10;41.80
6740;DHT22;3407;49.882;10.920;2022-09-30T04:24:01;5.10;37.50
6740;DHT22;3407;49.882;10.920;2022-09-30T04:28:56;5.00;33.90
6740;DHT22;3407;49.882;10.920;2022-09-30T04:33:53;5.00;33.10
6740;DHT22;3407;49.882;10.920;2022-09-30T04:38:51;5.00;32.90
6740;DHT22;3407;49.882;10.920;2022-09-30T04:43:48;5.10;30.40
6740;DHT22;3407;49.882;10.920;2022-09-30T04:48:44;5.10;26.30
6740;DHT22;3407;49.882;10.920;2022-09-30T04:53:40;5.10;27.80
6740;DHT22;3407;49.882;10.920;2022-09-30T04:58:36;5.20;28.40
6740;DHT22;3407;49.882;10.920;2022-09-30T05:03:33;5.20;27.50
6740;DHT22;3407;49.882;10.920;2022-09-30T05:08:28;5.10;25.50
6740;DHT22;3407;49.882;10.920;2022-09-30T05:13:25;4.90;29.00
6740;DHT22;3407;49.882;10.920;2022-09-30T05:18:21;5.10;39.00
6740;DHT22;3407;49.882;10.920;2022-09-30T05:23:17;5.20;42.30
6740;DHT22;3407;49.882;10.920;2022-09-30T05:28:13;5.20;39.70
6740;DHT22;3407;49.882;10.920;2022-09-30T05:33:10;5.00;36.00
6740;DHT22;3407;49.882;10.920;2022-09-30T05:38:06;4.90;32.50
6740;DHT22;3407;49.882;10.920;2022-09-30T05:43:01;4.80;34.70
6740;DHT22;3407;49.882;10.920;2022-09-30T05:47:57;4.80;36.50
6740;DHT22;3407;49.882;10.920;2022-09-30T05:52:52;4.90;38.60
6740;DHT22;3407;49.882;10.920;2022-09-30T05:57:49;5.00;39.80
6740;DHT22;3407;49.882;10.920;2022-09-30T06:02:50;5.00;38.70
6740;DHT22;3407;49.882;10.920;2022-09-30T06:07:45;5.00;36.80
6740;DHT22;3407;49.882;10.920;2022-09-30T06:12:41;5.00;37.70
6740;DHT22;3407;49.882;10.920;2022-09-30T06:17:36;5.10;36.50
6740;DHT22;3407;49.882;10.920;2022-09-30T06:22:32;5.30;35.50
6740;DHT22;3407;49.882;10.920;2022-09-30T06:27:32;5.30;22.20
6740;DHT22;3407;49.882;10.920;2022-09-30T06:32:27;5.30;19.10
6740;DHT22;3407;49.882;10.920;2022-09-30T06:37:24;5.30;12.90
6740;DHT22;3407;49.882;10.920;2022-09-30T06:42:20;5.40;2.00
6740;DHT22;3407;49.882;10.920;2022-09-30T06:47:17;5.60;6.20
6740;DHT22;3407;49.882;10.920;2022-09-30T06:52:13;5.70;1.00
6740;DHT22;3407;49.882;10.920;2022-09-30T06:57:08;6.00;1.00
6740;DHT22;3407;49.882;10.920;2022-09-30T07:02:04;6.20;1.00
6740;DHT22;3407;49.882;10.920;2022-09-30T07:07:00;6.40;1.00
6740;DHT22;3407;49.882;10.920;2022-09-30T07:11:55;6.50;1.00
6740;DHT22;3407;49.882;10.920;2022-09-30T07:16:51;6.30;1.00
6740;DHT22;3407;49.882;10.920;2022-09-30T07:21:48;6.50;1.00
6740;DHT22;3407;49.882;10.920;2022-09-30T07:26:44;6.80;1.00
6740;DHT22;3407;49.882;10.920;2022-09-30T07:31:39;7.10;1.00
6740;DHT22;3407;49.882;10.920;2022-09-30T07:36:37;7.20;1.00
6740;DHT22;3407;49.882;10.920;2022-09-30T07:41:35;7.30;1.00
6740;DHT22;3407;49.882;10.920;2022-09-30T07:46:34;7.50;1.00
6740;DHT22;3407;49.882;10.920;2022-09-30T07:51:33;7.60;1.00
6740;DHT22;3407;49.882;10.920;2022-09-30T07:56:29;7.70;1.00
6740;DHT22;3407;49.882;10.920;2022-09-30T08:01:28;7.90;1.00
6740;DHT22;3407;49.882;10.920;2022-09-30T08:06:27;8.10;1.00
6740;DHT22;3407;49.882;10.920;2022-09-30T08:11:24;8.00;1.00
6740;DHT22;3407;49.882;10.920;2022-09-30T08:16:21;8.00;1.00
6740;DHT22;3407;49.882;10.920;2022-09-30T08:21:17;8.50;1.00
6740;DHT22;3407;49.882;10.920;2022-09-30T08:26:12;9.00;1.00
6740;DHT22;3407;49.882;10.920;2022-09-30T08:36:26;9.40;99.90
6740;DHT22;3407;49.882;10.920;2022-09-30T08:41:50;9.50;6.60
6740;DHT22;3407;49.882;10.920;2022-09-30T08:51:51;9.90;1.00
6740;DHT22;3407;49.882;10.920;2022-09-30T08:56:48;9.80;99.90
6740;DHT22;3407;49.882;10.920;2022-09-30T09:01:46;9.90;99.90
6740;DHT22;3407;49.882;10.920;2022-09-30T09:07:05;10.40;99.90
6740;DHT22;3407;49.882;10.920;2022-09-30T09:12:13;11.40;99.90
6740;DHT22;3407;49.882;10.920;2022-09-30T09:17:57;12.70;1.00
6740;DHT22;3407;49.882;10.920;2022-09-30T09:22:56;14.20;77.70
6740;DHT22;3407;49.882;10.920;2022-09-30T09:27:52;14.00;1.00
6740;DHT22;3407;49.882;10.920;2022-09-30T09:32:51;14.70;1.00
6740;DHT22;3407;49.882;10.920;2022-09-30T09:48:43;14.70;99.90
6740;DHT22;3407;49.882;10.920;2022-09-30T09:53:41;14.90;99.90
6740;DHT22;3407;49.882;10.920;2022-09-30T09:58:40;14.80;1.00
6740;DHT22;3407;49.882;10.920;2022-09-30T10:09:21;15.20;99.90
6740;DHT22;3407;49.882;10.920;2022-09-30T10:14:19;15.80;99.90
6740;DHT22;3407;49.882;10.920;2022-09-30T10:19:21;15.80;99.90
6740;DHT22;3407;49.882;10.920;2022-09-30T10:24:29;15.30;99.90
6740;DHT22;3407;49.882;10.920;2022-09-30T10:29:33;15.00;99.90
6740;DHT22;3407;49.882;10.920;2022-09-30T10:34:32;14.60;99.90
6740;DHT22;3407;49.882;10.920;2022-09-30T10:44:25;14.60;1.00
6740;DHT22;3407;49.882;10.920;2022-09-30T10:49:35;14.80;99.90
6740;DHT22;3407;49.882;10.920;2022-09-30T10:54:42;14.90;1.00
6740;DHT22;3407;49.882;10.920;2022-09-30T10:59:39;15.10;99.90
6740;DHT22;3407;49.882;10.920;2022-09-30T11:05:02;15.40;99.90
6740;DHT22;3407;49.882;10.920;2022-09-30T11:10:13;15.80;99.90
6740;DHT22;3407;49.882;10.920;2022-09-30T11:15:23;16.20;99.90
6740;DHT22;3407;49.882;10.920;2022-09-30T11:20:25;17.00;99.90
6740;DHT22;3407;49.882;10.920;2022-09-30T11:25:51;18.60;99.90
6740;DHT22;3407;49.882;10.920;2022-09-30T11:31:22;19.90;99.90
6740;DHT22;3407;49.882;10.920;2022-09-30T11:36:36;21.30;99.90
6740;DHT22;3407;49.882;10.920;2022-09-30T11:41:50;21.90;99.90
6740;DHT22;3407;49.882;10.920;2022-09-30T11:52:14;23.00;99.90
6740;DHT22;3407;49.882;10.920;2022-09-30T11:57:32;24.70;99.90
6740;DHT22;3407;49.882;10.920;2022-09-30T12:02:39;26.10;99.90
6740;DHT22;3407;49.882;10.920;2022-09-30T12:07:45;25.70;99.90
6740;DHT22;3407;49.882;10.920;2022-09-30T12:12:43;25.80;99.90
6740;DHT22;3407;49.882;10.920;2022-09-30T12:17:46;25.10;98.00
6740;DHT22;3407;49.882;10.920;2022-09-30T12:22:47;24.60;99.80
6740;DHT22;3407;49.882;10.920;2022-09-30T12:28:28;24.70;98.80
6740;DHT22;3407;49.882;10.920;2022-09-30T12:33:39;24.40;98.10
6740;DHT22;3407;49.882;10.920;2022-09-30T12:38:50;23.80;99.00
6740;DHT22;3407;49.882;10.920;2022-09-30T12:44:46;24.30;99.20
6740;DHT22;3407;49.882;10.920;2022-09-30T12:49:23;24.70;97.80
6740;DHT22;3407;49.882;10.920;2022-09-30T12:54:54;25.20;96.70
6740;DHT22;3407;49.882;10.920;2022-09-30T12:59:51;25.50;95.30
6740;DHT22;3407;49.882;10.920;2022-09-30T13:04:49;24.50;91.40
6740;DHT22;3407;49.882;10.920;2022-09-30T13:10:00;24.10;93.00
6740;DHT22;3407;49.882;10.920;2022-09-30T13:15:48;23.90;94.60
6740;DHT22;3407;49.882;10.920;2022-09-30T13:25:52;24.80;93.70
6740;DHT22;3407;49.882;10.920;2022-09-30T13:30:48;25.10;92.60
6740;DHT22;3407;49.882;10.920;2022-09-30T13:40:52;25.30;90.10
6740;DHT22;3407;49.882;10.920;2022-09-30T13:45:50;25.40;85.70
6740;DHT22;3407;49.882;10.920;2022-09-30T13:50:49;24.90;81.10
6740;DHT22;3407;49.882;10.920;2022-09-30T13:55:48;25.00;81.80
6740;DHT22;3407;49.882;10.920;2022-09-30T14:00:58;24.40;79.30
6740;DHT22;3407;49.882;10.920;2022-09-30T14:06:13;24.70;84.60
6740;DHT22;3407;49.882;10.920;2022-09-30T14:11:30;24.70;80.60
6740;DHT22;3407;49.882;10.920;2022-09-30T14:31:46;23.40;88.80
6740;DHT22;3407;49.882;10.920;2022-09-30T14:36:43;23.30;75.40
6740;DHT22;3407;49.882;10.920;2022-09-30T14:41:38;23.30;75.60
6740;DHT22;3407;49.882;10.920;2022-09-30T14:46:40;22.90;76.40
6740;DHT22;3407;49.882;10.920;2022-09-30T14:51:43;22.80;78.00
6740;DHT22;3407;49.882;10.920;2022-09-30T14:56:39;22.50;75.70
6740;DHT22;3407;49.882;10.920;2022-09-30T15:01:35;22.10;75.80
6740;DHT22;3407;49.882;10.920;2022-09-30T15:06:35;21.30;80.70
6740;DHT22;3407;49.882;10.920;2022-09-30T15:11:32;20.30;84.60
6740;DHT22;3407;49.882;10.920;2022-09-30T15:16:30;19.20;86.80
6740;DHT22;3407;49.882;10.920;2022-09-30T15:21:29;18.40;92.00
6740;DHT22;3407;49.882;10.920;2022-09-30T15:26:26;17.80;93.30
6740;DHT22;3407;49.882;10.920;2022-09-30T15:31:29;17.30;95.20
6740;DHT22;3407;49.882;10.920;2022-09-30T15:36:26;16.70;98.40
6740;DHT22;3407;49.882;10.920;2022-09-30T15:41:22;16.20;99.90
6740;DHT22;3407;49.882;10.920;2022-09-30T15:46:29;15.90;99.90
6740;DHT22;3407;49.882;10.920;2022-09-30T16:01:44;15.30;99.90
6740;DHT22;3407;49.882;10.920;2022-09-30T16:06:47;15.00;99.90
6740;DHT22;3407;49.882;10.920;2022-09-30T16:17:22;14.60;99.90
6740;DHT22;3407;49.882;10.920;2022-09-30T16:27:36;14.30;99.90
6740;DHT22;3407;49.882;10.920;2022-09-30T16:32:37;14.10;99.90
6740;DHT22;3407;49.882;10.920;2022-09-30T16:37:34;13.90;99.90
6740;DHT22;3407;49.882;10.920;2022-09-30T16:42:30;13.70;99.90
6740;DHT22;3407;49.882;10.920;2022-09-30T16:47:27;13.50;1.00
6740;DHT22;3407;49.882;10.920;2022-09-30T16:52:22;13.20;99.90
6740;DHT22;3407;49.882;10.920;2022-09-30T16:57:20;12.90;1.00
6740;DHT22;3407;49.882;10.920;2022-09-30T17:02:15;12.70;50.50
6740;DHT22;3407;49.882;10.920;2022-09-30T17:07:11;12.50;1.00
6740;DHT22;3407;49.882;10.920;2022-09-30T17:12:09;12.30;99.90
6740;DHT22;3407;49.882;10.920;2022-09-30T17:17:06;12.00;1.00
6740;DHT22;3407;49.882;10.920;2022-09-30T17:22:02;11.70;99.90
6740;DHT22;3407;49.882;10.920;2022-09-30T17:26:58;11.50;1.00
6740;DHT22;3407;49.882;10.920;2022-09-30T17:31:53;11.30;37.50
6740;DHT22;3407;49.882;10.920;2022-09-30T17:36:49;11.10;12.50
6740;DHT22;3407;49.882;10.920;2022-09-30T17:41:45;10.90;99.90
6740;DHT22;3407;49.882;10.920;2022-09-30T17:46:59;10.70;1.00
6740;DHT22;3407;49.882;10.920;2022-09-30T17:51:55;10.50;1.00
6740;DHT22;3407;49.882;10.920;2022-09-30T17:56:51;10.30;1.00
6740;DHT22;3407;49.882;10.920;2022-09-30T18:01:48;10.30;1.00
6740;DHT22;3407;49.882;10.920;2022-09-30T18:06:44;10.20;1.00
6740;DHT22;3407;49.882;10.920;2022-09-30T18:11:40;10.00;1.00
6740;DHT22;3407;49.882;10.920;2022-09-30T18:16:36;9.90;1.00
6740;DHT22;3407;49.882;10.920;2022-09-30T18:21:33;9.90;1.00
6740;DHT22;3407;49.882;10.920;2022-09-30T18:26:30;9.70;1.00
6740;DHT22;3407;49.882;10.920;2022-09-30T18:31:26;9.60;1.00
6740;DHT22;3407;49.882;10.920;2022-09-30T18:36:30;9.50;1.00
6740;DHT22;3407;49.882;10.920;2022-09-30T18:41:31;9.30;1.00
6740;DHT22;3407;49.882;10.920;2022-09-30T18:46:28;9.30;1.00
6740;DHT22;3407;49.882;10.920;2022-09-30T18:51:24;9.20;1.00
6740;DHT22;3407;49.882;10.920;2022-09-30T18:56:20;9.10;1.00
6740;DHT22;3407;49.882;10.920;2022-09-30T19:01:18;9.00;1.00
6740;DHT22;3407;49.882;10.920;2022-09-30T19:06:14;8.80;1.00
6740;DHT22;3407;49.882;10.920;2022-09-30T19:11:11;8.80;1.00
6740;DHT22;3407;49.882;10.920;2022-09-30T19:16:09;8.70;1.00
6740;DHT22;3407;49.882;10.920;2022-09-30T19:21:09;8.60;1.00
6740;DHT22;3407;49.882;10.920;2022-09-30T19:26:07;8.60;1.00
6740;DHT22;3407;49.882;10.920;2022-09-30T19:31:11;8.50;1.00
6740;DHT22;3407;49.882;10.920;2022-09-30T19:36:08;8.30;1.00
6740;DHT22;3407;49.882;10.920;2022-09-30T19:41:05;8.20;1.00
6740;DHT22;3407;49.882;10.920;2022-09-30T19:46:03;8.10;1.00
6740;DHT22;3407;49.882;10.920;2022-09-30T19:56:07;8.00;1.00
6740;DHT22;3407;49.882;10.920;2022-09-30T20:01:08;7.90;1.00
6740;DHT22;3407;49.882;10.920;2022-09-30T20:06:06;7.80;1.00
6740;DHT22;3407;49.882;10.920;2022-09-30T20:11:06;7.70;1.00
6740;DHT22;3407;49.882;10.920;2022-09-30T20:16:05;7.60;1.00
6740;DHT22;3407;49.882;10.920;2022-09-30T20:21:09;7.50;1.00
6740;DHT22;3407;49.882;10.920;2022-09-30T20:26:12;7.50;1.00
6740;DHT22;3407;49.882;10.920;2022-09-30T20:31:11;7.40;1.00
6740;DHT22;3407;49.882;10.920;2022-09-30T20:36:09;7.40;1.00
6740;DHT22;3407;49.882;10.920;2022-09-30T20:41:08;7.30;1.00
6740;DHT22;3407;49.882;10.920;2022-09-30T20:46:04;7.20;1.00
6740;DHT22;3407;49.882;10.920;2022-09-30T20:51:11;7.00;1.00
6740;DHT22;3407;49.882;10.920;2022-09-30T20:56:08;7.10;1.00
6740;DHT22;3407;49.882;10.920;2022-09-30T21:01:09;7.10;1.00
6740;DHT22;3407;49.882;10.920;2022-09-30T21:06:06;7.10;1.00
6740;DHT22;3407;49.882;10.920;2022-09-30T21:11:02;7.10;1.00
6740;DHT22;3407;49.882;10.920;2022-09-30T21:15:59;7.20;1.00
6740;DHT22;3407;49.882;10.920;2022-09-30T21:21:04;7.10;1.00
6740;DHT22;3407;49.882;10.920;2022-09-30T21:26:12;7.00;1.00
6740;DHT22;3407;49.882;10.920;2022-09-30T21:31:18;7.00;1.00
6740;DHT22;3407;49.882;10.920;2022-09-30T21:36:14;6.90;1.00
6740;DHT22;3407;49.882;10.920;2022-09-30T21:41:10;6.80;1.00
6740;DHT22;3407;49.882;10.920;2022-09-30T21:46:11;6.70;1.00
6740;DHT22;3407;49.882;10.920;2022-09-30T21:51:08;6.60;1.00
6740;DHT22;3407;49.882;10.920;2022-09-30T21:56:05;6.60;1.00
6740;DHT22;3407;49.882;10.920;2022-09-30T22:01:03;6.50;1.00
6740;DHT22;3407;49.882;10.920;2022-09-30T22:05:58;6.50;1.00
6740;DHT22;3407;49.882;10.920;2022-09-30T22:10:54;6.50;1.00
6740;DHT22;3407;49.882;10.920;2022-09-30T22:15:50;6.50;1.00
6740;DHT22;3407;49.882;10.920;2022-09-30T22:20:46;6.50;1.00
6740;DHT22;3407;49.882;10.920;2022-09-30T22:25:42;6.40;1.00
6740;DHT22;3407;49.882;10.920;2022-09-30T22:30:37;6.40;1.00
6740;DHT22;3407;49.882;10.920;2022-09-30T22:35:33;6.40;1.00
6740;DHT22;3407;49.882;10.920;2022-09-30T22:40:47;6.50;1.00
6740;DHT22;3407;49.882;10.920;2022-09-30T22:45:42;6.50;1.00
6740;DHT22;3407;49.882;10.920;2022-09-30T22:50:39;6.30;1.00
6740;DHT22;3407;49.882;10.920;2022-09-30T22:55:34;6.30;1.00
6740;DHT22;3407;49.882;10.920;2022-09-30T23:00:31;6.20;1.00
6740;DHT22;3407;49.882;10.920;2022-09-30T23:05:26;6.20;1.00
6740;DHT22;3407;49.882;10.920;2022-09-30T23:10:22;6.20;1.00
6740;DHT22;3407;49.882;10.920;2022-09-30T23:15:18;6.20;4.90
6740;DHT22;3407;49.882;10.920;2022-09-30T23:20:14;6.30;7.50
6740;DHT22;3407;49.882;10.920;2022-09-30T23:25:09;6.30;6.70
6740;DHT22;3407;49.882;10.920;2022-09-30T23:30:06;6.40;2.90
6740;DHT22;3407;49.882;10.920;2022-09-30T23:35:01;6.30;1.90
6740;DHT22;3407;49.882;10.920;2022-09-30T23:39:58;6.30;7.10
6740;DHT22;3407;49.882;10.920;2022-09-30T23:44:53;6.30;5.00
6740;DHT22;3407;49.882;10.920;2022-09-30T23:49:49;6.30;5.10
6740;DHT22;3407;49.882;10.920;2022-09-30T23:54:45;6.40;6.10
6740;DHT22;3407;49.882;10.920;2022-09-30T23:59:41;6.40;1.20
